createdAt,value
2022-09-23T00:01:15.640Z,64.83
2022-09-23T00:03:45.372Z,65.17
2022-09-23T00:06:15.837Z,62.63
2022-09-23T00:08:44.058Z,63.93
2022-09-23T00:11:15.321Z,62.50
2022-09-23T00:13:45.168Z,66.30
2022-09-23T00:16:15.151Z,65.90
2022-09-23T00:18:43.233Z,66.97
2022-09-23T00:21:12.911Z,69.00
2022-09-23T00:23:41.683Z,66.93
2022-09-23T00:26:11.312Z,66.30
2022-09-23T00:28:40.579Z,62.97
2022-09-23T00:31:10.190Z,62.67
2022-09-23T00:33:37.828Z,62.23
2022-09-23T00:36:07.541Z,65.90
2022-09-23T00:38:35.320Z,63.20
2022-09-23T00:41:04.099Z,67.20
2022-09-23T00:43:41.322Z,67.57
2022-09-23T00:46:10.932Z,66.03
2022-09-23T00:48:42.187Z,66.80
2022-09-23T00:51:12.822Z,68.93
2022-09-23T00:53:41.624Z,65.87
2022-09-23T00:56:10.666Z,67.43
2022-09-23T00:58:43.683Z,64.67
2022-09-23T01:01:13.811Z,65.90
2022-09-23T01:03:43.905Z,66.33
2022-09-23T01:06:12.075Z,66.50
2022-09-23T01:08:40.172Z,63.50
2022-09-23T01:11:16.910Z,64.60
2022-09-23T01:13:57.268Z,69.07
2022-09-23T01:16:34.567Z,63.83
2022-09-23T01:19:14.382Z,67.37
2022-09-23T01:21:50.645Z,65.10
2022-09-23T01:24:54.598Z,68.80
2022-09-23T01:27:41.417Z,67.73
2022-09-23T01:30:20.883Z,66.03
2022-09-23T01:33:05.545Z,69.03
2022-09-23T01:35:44.235Z,68.63
2022-09-23T01:38:21.033Z,70.13
2022-09-23T01:40:56.117Z,67.57
2022-09-23T01:43:28.951Z,68.47
2022-09-23T01:46:00.334Z,67.90
2022-09-23T01:48:35.031Z,65.50
2022-09-23T01:51:07.931Z,67.47
2022-09-23T01:53:41.985Z,69.03
2022-09-23T01:56:14.155Z,66.77
2022-09-23T01:58:46.451Z,66.07
2022-09-23T02:01:19.736Z,68.80
2022-09-23T02:03:55.371Z,64.37
2022-09-23T02:06:27.982Z,62.47
2022-09-23T02:09:00.306Z,67.50
2022-09-23T02:11:29.062Z,63.77
2022-09-23T02:14:01.010Z,63.20
2022-09-23T02:16:32.945Z,61.50
2022-09-23T02:19:07.270Z,65.97
2022-09-23T02:21:39.264Z,64.60
2022-09-23T02:24:12.368Z,66.70
2022-09-23T02:26:47.925Z,67.23
2022-09-23T02:29:21.392Z,69.60
2022-09-23T02:31:58.197Z,67.57
2022-09-23T02:34:36.987Z,65.50
2022-09-23T02:37:17.005Z,65.60
2022-09-23T02:39:56.111Z,65.70
2022-09-23T02:42:31.205Z,62.90
2022-09-23T02:44:58.940Z,62.60
2022-09-23T02:47:31.950Z,67.73
2022-09-23T02:50:00.954Z,62.80
2022-09-23T02:52:28.649Z,61.60
2022-09-23T02:54:57.059Z,63.80
2022-09-23T02:57:24.671Z,64.80
2022-09-23T02:59:52.535Z,61.83
2022-09-23T03:02:44.071Z,62.10
2022-09-23T03:05:23.853Z,62.63
2022-09-23T03:08:04.997Z,63.37
2022-09-23T03:10:43.006Z,61.40
2022-09-23T03:13:18.549Z,60.80
2022-09-23T03:15:52.402Z,61.87
2022-09-23T03:18:31.252Z,62.13
2022-09-23T03:21:06.158Z,62.10
2022-09-23T03:23:36.680Z,61.73
2022-09-23T03:26:10.388Z,64.00
2022-09-23T03:28:39.609Z,62.90
2022-09-23T03:31:07.412Z,60.77
2022-09-23T03:33:37.736Z,62.30
2022-09-23T03:36:27.954Z,63.17
2022-09-23T03:39:02.336Z,63.40
2022-09-23T03:41:34.659Z,61.57
2022-09-23T03:44:03.328Z,62.20
2022-09-23T03:46:34.030Z,61.30
2022-09-23T03:49:11.653Z,62.70
2022-09-23T03:51:44.481Z,62.30
2022-09-23T03:54:12.323Z,62.40
2022-09-23T03:56:39.873Z,62.10
2022-09-23T03:59:07.405Z,62.30
2022-09-23T04:01:34.904Z,62.03
2022-09-23T04:04:02.759Z,61.73
2022-09-23T04:06:30.273Z,61.03
2022-09-23T04:08:59.834Z,61.50
2022-09-23T04:11:27.325Z,61.70
2022-09-23T04:13:56.257Z,60.00
2022-09-23T04:16:24.022Z,60.40
2022-09-23T04:18:52.236Z,61.97
2022-09-23T04:21:19.817Z,61.20
2022-09-23T04:23:47.465Z,60.43
2022-09-23T04:26:16.669Z,60.80
2022-09-23T04:28:44.231Z,59.93
2022-09-23T04:31:11.790Z,62.17
2022-09-23T04:33:39.571Z,63.83
2022-09-23T04:36:07.652Z,62.63
2022-09-23T04:38:35.728Z,63.10
2022-09-23T04:41:03.232Z,61.80
2022-09-23T04:43:32.186Z,62.40
2022-09-23T04:46:00.830Z,60.60
2022-09-23T04:48:28.509Z,61.10
2022-09-23T04:50:56.167Z,62.23
2022-09-23T04:53:23.702Z,60.87
2022-09-23T04:55:52.229Z,59.90
2022-09-23T04:58:22.983Z,61.60
2022-09-23T05:00:52.210Z,61.17
2022-09-23T05:03:19.729Z,60.00
2022-09-23T05:05:47.427Z,60.70
2022-09-23T05:08:15.267Z,60.93
2022-09-23T05:10:43.201Z,60.70
2022-09-23T05:13:10.738Z,59.97
2022-09-23T05:15:38.238Z,60.97
2022-09-23T05:18:07.148Z,59.43
2022-09-23T05:20:34.643Z,60.43
2022-09-23T05:23:02.171Z,60.30
2022-09-23T05:25:29.660Z,60.43
2022-09-23T05:27:57.192Z,60.00
2022-09-23T05:32:52.455Z,60.80
2022-09-23T05:35:21.282Z,61.23
2022-09-23T05:37:48.815Z,60.57
2022-09-23T05:40:16.335Z,60.20
2022-09-23T05:42:43.901Z,61.50
2022-09-23T05:45:11.593Z,60.67
2022-09-23T05:47:39.265Z,59.40
2022-09-23T05:50:07.642Z,59.27
2022-09-23T05:52:36.532Z,61.83
2022-09-23T05:55:04.556Z,61.23
2022-09-23T05:57:32.662Z,61.23
2022-09-23T06:00:00.307Z,62.60
2022-09-23T06:02:27.838Z,61.00
2022-09-23T06:04:55.409Z,62.90
2022-09-23T06:07:22.932Z,62.47
2022-09-23T06:09:53.929Z,61.57
2022-09-23T06:12:22.501Z,62.60
2022-09-23T06:14:50.679Z,63.97
2022-09-23T06:17:18.203Z,62.13
2022-09-23T06:19:45.861Z,61.30
2022-09-23T06:22:16.949Z,64.40
2022-09-23T06:24:44.502Z,63.57
2022-09-23T06:27:13.426Z,62.27
2022-09-23T06:29:41.006Z,62.23
2022-09-23T06:32:08.769Z,60.63
2022-09-23T06:34:48.287Z,61.33
2022-09-23T06:37:20.513Z,60.63
2022-09-23T06:39:49.029Z,62.07
2022-09-23T06:42:18.468Z,60.40
2022-09-23T06:44:45.963Z,60.80
2022-09-23T06:47:13.470Z,60.87
2022-09-23T06:49:41.178Z,61.80
2022-09-23T06:52:09.040Z,61.97
2022-09-23T06:54:38.041Z,61.67
2022-09-23T06:57:05.626Z,61.20
2022-09-23T06:59:34.944Z,60.80
2022-09-23T07:02:02.840Z,61.80
2022-09-23T07:04:30.500Z,61.87
2022-09-23T07:06:58.129Z,63.30
2022-09-23T07:09:25.932Z,61.93
2022-09-23T07:11:53.467Z,60.23
2022-09-23T07:14:21.005Z,64.20
2022-09-23T07:16:51.381Z,63.50
2022-09-23T07:19:18.896Z,64.50
2022-09-23T07:21:46.384Z,65.20
2022-09-23T07:24:13.916Z,62.40
2022-09-23T07:26:45.561Z,64.80
2022-09-23T07:29:14.988Z,64.73
2022-09-23T07:31:43.015Z,65.50
2022-09-23T07:34:12.150Z,64.83
2022-09-23T07:36:40.595Z,63.87
2022-09-23T07:39:08.903Z,65.60
2022-09-23T07:41:37.156Z,65.27
2022-09-23T07:44:06.211Z,65.13
2022-09-23T07:46:37.002Z,68.53
2022-09-23T07:49:06.246Z,64.77
2022-09-23T07:51:38.218Z,68.47
2022-09-23T07:54:08.721Z,64.57
2022-09-23T07:56:37.703Z,64.17
2022-09-23T07:59:05.734Z,66.30
2022-09-23T08:01:35.988Z,68.53
2022-09-23T08:04:06.910Z,64.57
2022-09-23T08:06:36.757Z,63.63
2022-09-23T08:09:04.639Z,64.87
2022-09-23T08:11:32.846Z,64.87
2022-09-23T08:14:00.354Z,65.20
2022-09-23T08:16:27.907Z,66.13
2022-09-23T08:18:55.501Z,64.30
2022-09-23T08:21:24.032Z,64.10
2022-09-23T08:23:52.971Z,63.13
2022-09-23T08:26:22.430Z,64.60
2022-09-23T08:28:53.839Z,64.30
2022-09-23T08:31:21.645Z,64.60
2022-09-23T08:33:49.722Z,63.70
2022-09-23T08:36:17.356Z,64.27
2022-09-23T08:38:44.930Z,64.10
2022-09-23T08:41:21.479Z,66.03
2022-09-23T08:43:53.365Z,65.30
2022-09-23T08:46:25.374Z,62.57
2022-09-23T08:48:53.566Z,65.00
2022-09-23T08:51:27.029Z,65.90
2022-09-23T08:53:54.606Z,65.03
2022-09-23T08:56:25.037Z,66.07
2022-09-23T08:59:01.248Z,61.93
2022-09-23T09:01:35.174Z,63.53
2022-09-23T09:04:07.394Z,62.43
2022-09-23T09:06:52.897Z,61.13
2022-09-23T09:09:25.012Z,63.40
2022-09-23T09:12:00.928Z,63.20
2022-09-23T09:14:36.794Z,61.50
2022-09-23T09:17:07.922Z,61.13
2022-09-23T09:19:59.282Z,62.07
2022-09-23T09:22:43.260Z,62.90
2022-09-23T09:25:23.837Z,62.00
2022-09-23T09:27:53.639Z,59.83
2022-09-23T09:30:21.590Z,60.53
2022-09-23T09:32:53.431Z,60.93
2022-09-23T09:35:28.060Z,59.70
2022-09-23T09:37:55.924Z,58.90
2022-09-23T09:40:23.536Z,59.83
2022-09-23T09:42:52.461Z,59.83
2022-09-23T09:45:30.022Z,58.83
2022-09-23T09:48:05.783Z,59.53
2022-09-23T09:50:49.217Z,60.70
2022-09-23T09:53:27.456Z,60.10
2022-09-23T09:56:04.950Z,58.80
2022-09-23T09:58:43.885Z,60.60
2022-09-23T10:01:20.233Z,59.70
2022-09-23T10:03:48.226Z,58.63
2022-09-23T10:06:22.137Z,59.33
2022-09-23T10:09:12.000Z,59.50
2022-09-23T10:11:41.021Z,61.70
2022-09-23T10:14:17.496Z,62.50
2022-09-23T10:16:48.754Z,62.07
2022-09-23T10:19:26.412Z,62.80
2022-09-23T10:21:56.819Z,59.83
2022-09-23T10:24:27.599Z,62.37
2022-09-23T10:27:00.846Z,59.40
2022-09-23T10:29:32.840Z,60.70
2022-09-23T10:32:25.543Z,58.33
2022-09-23T10:34:56.971Z,58.77
2022-09-23T10:37:33.286Z,60.20
2022-09-23T10:40:18.830Z,57.97
2022-09-23T10:43:18.384Z,61.13
2022-09-23T10:46:22.267Z,57.90
2022-09-23T10:49:05.871Z,59.47
2022-09-23T10:51:45.567Z,58.47
2022-09-23T10:54:22.770Z,59.53
2022-09-23T10:57:01.227Z,62.00
2022-09-23T10:59:44.611Z,60.10
2022-09-23T11:02:27.999Z,58.97
2022-09-23T11:05:13.849Z,62.90
2022-09-23T11:07:49.247Z,61.67
2022-09-23T11:10:46.573Z,60.83
2022-09-23T11:13:30.973Z,60.93
2022-09-23T11:16:08.697Z,62.60
2022-09-23T11:18:59.420Z,59.40
2022-09-23T11:21:42.499Z,61.33
2022-09-23T11:24:23.803Z,62.80
2022-09-23T11:27:04.954Z,61.10
2022-09-23T11:29:53.223Z,62.20
2022-09-23T11:32:38.255Z,64.10
2022-09-23T11:35:17.451Z,64.60
2022-09-23T11:37:49.977Z,61.70
2022-09-23T11:40:21.854Z,64.40
2022-09-23T11:42:58.099Z,61.27
2022-09-23T11:45:30.976Z,64.27
2022-09-23T11:48:03.611Z,62.23
2022-09-23T11:50:35.853Z,65.73
2022-09-23T11:53:08.820Z,62.03
2022-09-23T11:55:55.293Z,59.30
2022-09-23T11:58:31.272Z,62.40
2022-09-23T12:01:02.078Z,60.73
2022-09-23T12:03:44.319Z,57.00
2022-09-23T12:06:18.543Z,60.00
2022-09-23T12:08:46.133Z,58.80
2022-09-23T12:11:24.856Z,57.80
2022-09-23T12:14:00.848Z,57.30
2022-09-23T12:16:45.546Z,57.90
2022-09-23T12:19:28.676Z,57.73
2022-09-23T12:22:16.833Z,62.80
2022-09-23T12:24:48.385Z,63.93
2022-09-23T12:27:27.904Z,64.30
2022-09-23T12:29:59.808Z,61.13
2022-09-23T12:32:28.299Z,64.50
2022-09-23T12:34:56.327Z,60.43
2022-09-23T12:37:28.978Z,62.10
2022-09-23T12:40:02.515Z,64.80
2022-09-23T12:42:31.392Z,63.90
2022-09-23T12:45:34.974Z,64.50
2022-09-23T12:48:04.217Z,63.80
2022-09-23T12:50:48.456Z,63.30
2022-09-23T12:53:53.113Z,63.93
2022-09-23T12:56:24.609Z,63.43
2022-09-23T12:59:10.803Z,60.40
2022-09-23T13:01:39.392Z,63.40
2022-09-23T13:04:24.897Z,58.50
2022-09-23T13:06:58.694Z,58.00
2022-09-23T13:09:29.276Z,59.67
2022-09-23T13:12:02.369Z,58.10
2022-09-23T13:14:32.895Z,57.87
2022-09-23T13:17:00.781Z,57.20
2022-09-23T13:19:47.377Z,57.60
2022-09-23T13:22:15.066Z,57.23
2022-09-23T13:24:45.238Z,58.23
2022-09-23T13:27:19.958Z,56.77
2022-09-23T13:29:52.867Z,57.50
2022-09-23T13:32:22.252Z,57.17
2022-09-23T13:34:58.177Z,57.50
2022-09-23T13:37:31.281Z,57.20
2022-09-23T13:40:09.845Z,57.20
2022-09-23T13:42:41.923Z,56.40
2022-09-23T13:45:16.397Z,57.53
2022-09-23T13:47:45.527Z,58.20
2022-09-23T13:50:18.125Z,58.37
2022-09-23T13:52:46.325Z,57.40
2022-09-23T13:55:32.314Z,58.33
2022-09-23T13:58:04.261Z,58.03
2022-09-23T14:00:36.512Z,58.80
2022-09-23T14:03:16.753Z,57.60
2022-09-23T14:05:44.595Z,57.63
2022-09-23T14:08:13.060Z,57.93
2022-09-23T14:10:42.919Z,58.10
2022-09-23T14:13:17.384Z,58.10
2022-09-23T14:15:46.208Z,57.80
2022-09-23T14:18:19.572Z,58.20
2022-09-23T14:20:50.249Z,58.53
2022-09-23T14:23:18.716Z,58.03
2022-09-23T14:25:47.779Z,58.47
2022-09-23T14:28:19.222Z,57.20
2022-09-23T14:30:48.096Z,57.13
2022-09-23T14:33:17.993Z,57.80
2022-09-23T14:35:49.227Z,58.30
2022-09-23T14:38:41.626Z,58.97
2022-09-23T14:41:18.080Z,58.20
2022-09-23T14:43:54.627Z,57.93
2022-09-23T14:46:24.508Z,57.43
2022-09-23T14:48:59.061Z,58.00
2022-09-23T14:51:33.407Z,57.17
2022-09-23T14:54:41.249Z,58.27
2022-09-23T14:57:29.721Z,58.40
2022-09-23T15:00:02.438Z,57.50
2022-09-23T15:02:32.560Z,57.93
2022-09-23T15:05:31.405Z,59.10
2022-09-23T15:08:02.761Z,58.60
2022-09-23T15:10:33.422Z,58.00
2022-09-23T15:13:06.529Z,57.50
2022-09-23T15:15:36.231Z,58.27
2022-09-23T15:18:07.128Z,57.77
2022-09-23T15:20:35.636Z,58.10
2022-09-23T15:23:03.791Z,57.33
2022-09-23T15:25:34.105Z,56.67
2022-09-23T15:28:05.821Z,58.40
2022-09-23T15:30:38.135Z,57.47
2022-09-23T15:33:06.317Z,56.50
2022-09-23T15:35:35.026Z,57.80
2022-09-23T15:38:03.213Z,57.13
2022-09-23T15:40:32.398Z,58.00
2022-09-23T15:43:01.321Z,58.47
2022-09-23T15:45:33.127Z,57.53
2022-09-23T15:48:07.312Z,57.63
2022-09-23T15:50:35.944Z,58.77
2022-09-23T15:53:04.268Z,56.20
2022-09-23T15:55:31.950Z,56.73
2022-09-23T15:57:59.649Z,57.10
2022-09-23T16:00:27.251Z,55.93
2022-09-23T16:02:55.205Z,55.77
2022-09-23T16:05:30.682Z,57.67
2022-09-23T16:07:58.357Z,56.50
2022-09-23T16:10:26.067Z,56.07
2022-09-23T16:12:55.733Z,56.23
2022-09-23T16:15:25.218Z,55.80
2022-09-23T16:17:52.885Z,56.73
2022-09-23T16:20:20.439Z,56.40
2022-09-23T16:22:54.882Z,57.10
2022-09-23T16:25:27.240Z,56.30
2022-09-23T16:27:55.404Z,56.00
2022-09-23T16:30:23.431Z,58.83
2022-09-23T16:32:51.651Z,58.33
2022-09-23T16:35:19.909Z,58.47
2022-09-23T16:37:49.640Z,59.20
2022-09-23T16:40:19.855Z,58.80
2022-09-23T16:42:47.758Z,58.50
2022-09-23T16:45:16.863Z,57.60
2022-09-23T16:47:46.161Z,57.50
2022-09-23T16:50:14.397Z,57.43
2022-09-23T16:52:42.678Z,58.00
2022-09-23T16:55:13.479Z,57.70
2022-09-23T16:57:41.905Z,58.30
2022-09-23T17:00:31.454Z,56.83
2022-09-23T17:03:16.901Z,57.60
2022-09-23T17:05:46.804Z,57.80
2022-09-23T17:08:16.336Z,57.17
2022-09-23T17:10:55.174Z,59.07
2022-09-23T17:13:22.813Z,58.60
2022-09-23T17:15:50.512Z,57.80
2022-09-23T17:18:19.623Z,58.10
2022-09-23T17:20:57.603Z,58.23
2022-09-23T17:23:26.353Z,58.50
2022-09-23T17:25:55.467Z,57.87
2022-09-23T17:28:23.348Z,59.10
2022-09-23T17:33:26.028Z,58.00
2022-09-23T17:35:54.503Z,58.30
2022-09-23T17:38:26.745Z,55.93
2022-09-23T17:41:00.994Z,57.40
2022-09-23T17:43:31.034Z,57.90
2022-09-23T17:46:06.180Z,58.03
2022-09-23T17:48:35.483Z,57.73
2022-09-23T17:51:05.015Z,59.43
2022-09-23T17:53:34.974Z,58.17
2022-09-23T17:56:06.597Z,60.23
2022-09-23T17:58:35.822Z,58.17
2022-09-23T18:01:03.433Z,57.57
2022-09-23T18:03:33.055Z,57.50
2022-09-23T18:06:08.052Z,57.13
2022-09-23T18:08:35.683Z,57.57
2022-09-23T18:11:12.084Z,57.70
2022-09-23T18:13:39.604Z,57.23
2022-09-23T18:16:07.797Z,58.80
2022-09-23T18:18:35.391Z,59.10
2022-09-23T18:21:03.232Z,58.23
2022-09-23T18:23:30.978Z,57.80
2022-09-23T18:25:58.506Z,57.93
2022-09-23T18:28:34.544Z,57.60
2022-09-23T18:31:02.397Z,57.33
2022-09-23T18:33:29.950Z,58.20
2022-09-23T18:36:00.230Z,57.83
2022-09-23T18:38:27.775Z,57.97
2022-09-23T18:40:57.003Z,58.80
2022-09-23T18:43:25.894Z,59.10
2022-09-23T18:45:59.443Z,58.30
2022-09-23T18:48:44.713Z,57.40
2022-09-23T18:51:13.506Z,58.70
2022-09-23T18:53:42.017Z,58.03
2022-09-23T18:56:10.677Z,58.57
2022-09-23T18:58:38.689Z,59.07
2022-09-23T19:01:10.276Z,59.10
2022-09-23T19:03:38.295Z,58.07
2022-09-23T19:06:07.933Z,58.53
2022-09-23T19:08:36.327Z,57.70
2022-09-23T19:11:06.204Z,58.30
2022-09-23T19:13:34.890Z,58.20
2022-09-23T19:16:03.529Z,59.93
2022-09-23T19:18:32.641Z,58.07
2022-09-23T19:21:03.644Z,58.77
2022-09-23T19:23:35.486Z,66.67
2022-09-23T19:26:05.510Z,67.47
2022-09-23T19:28:33.460Z,64.10
2022-09-23T19:31:10.646Z,69.00
2022-09-23T19:33:41.191Z,72.33
2022-09-23T19:36:09.438Z,77.13
2022-09-23T19:38:38.308Z,77.70
2022-09-23T19:41:07.826Z,75.87
2022-09-23T19:43:36.707Z,72.17
2022-09-23T19:46:04.356Z,70.63
2022-09-23T19:48:31.933Z,66.53
2022-09-23T19:51:02.539Z,67.30
2022-09-23T19:53:30.157Z,62.20
2022-09-23T19:55:57.802Z,62.20
2022-09-23T19:58:26.254Z,63.13
2022-09-23T20:00:53.892Z,60.63
2022-09-23T20:03:21.474Z,60.70
2022-09-23T20:05:56.555Z,64.47
2022-09-23T20:08:26.851Z,62.47
2022-09-23T20:10:54.491Z,64.97
2022-09-23T20:13:22.339Z,64.30
2022-09-23T20:15:50.170Z,67.23
2022-09-23T20:18:17.695Z,65.10
2022-09-23T20:20:45.209Z,65.70
2022-09-23T20:23:12.715Z,63.73
2022-09-23T20:25:59.006Z,64.30
2022-09-23T20:28:27.334Z,65.57
2022-09-23T20:30:59.033Z,63.57
2022-09-23T20:33:26.584Z,63.03
2022-09-23T20:35:54.084Z,65.23
2022-09-23T20:38:21.593Z,64.63
2022-09-23T20:40:56.896Z,63.03
2022-09-23T20:43:24.641Z,62.17
2022-09-23T20:45:52.974Z,64.80
2022-09-23T20:48:20.552Z,64.03
2022-09-23T20:50:49.055Z,66.47
2022-09-23T20:53:16.579Z,62.40
2022-09-23T20:55:50.120Z,64.53
2022-09-23T20:58:19.338Z,65.67
2022-09-23T21:00:46.930Z,66.50
2022-09-23T21:03:14.731Z,66.20
2022-09-23T21:05:42.493Z,61.87
2022-09-23T21:08:10.126Z,65.77
2022-09-23T21:10:37.730Z,64.60
2022-09-23T21:13:06.874Z,61.93
2022-09-23T21:15:36.793Z,61.10
2022-09-23T21:18:04.503Z,61.50
2022-09-23T21:20:32.005Z,62.20
2022-09-23T21:22:59.528Z,64.10
2022-09-23T21:25:29.018Z,61.30
2022-09-23T21:27:58.376Z,62.87
2022-09-23T21:30:26.182Z,65.63
2022-09-23T21:32:55.842Z,63.53
2022-09-23T21:35:23.495Z,62.00
2022-09-23T21:37:51.003Z,64.43
2022-09-23T21:40:36.447Z,62.17
2022-09-23T21:43:04.030Z,67.57
2022-09-23T21:45:31.748Z,67.60
2022-09-23T21:48:01.204Z,62.70
2022-09-23T21:50:29.954Z,63.37
2022-09-23T21:52:58.232Z,61.77
2022-09-23T21:55:27.666Z,61.87
2022-09-23T21:57:55.167Z,62.00
2022-09-23T22:00:23.449Z,62.13
2022-09-23T22:02:52.355Z,63.50
2022-09-23T22:05:21.535Z,70.43
2022-09-23T22:07:49.021Z,68.07
2022-09-23T22:10:16.763Z,68.30
2022-09-23T22:12:44.266Z,65.77
2022-09-23T22:15:11.773Z,66.17
2022-09-23T22:17:39.735Z,66.40
2022-09-23T22:20:08.257Z,69.57
2022-09-23T22:22:37.114Z,66.40
2022-09-23T22:25:05.011Z,66.00
2022-09-23T22:27:32.545Z,66.67
2022-09-23T22:30:17.595Z,64.50
2022-09-23T22:32:52.854Z,62.30
2022-09-23T22:35:22.022Z,62.90
2022-09-23T22:37:50.867Z,63.50
2022-09-23T22:40:18.501Z,63.87
2022-09-23T22:42:46.202Z,63.50
2022-09-23T22:45:14.067Z,64.60
2022-09-23T22:47:44.030Z,64.27
2022-09-23T22:50:13.853Z,62.27
2022-09-23T22:52:41.463Z,63.00
2022-09-23T22:55:10.721Z,64.90
2022-09-23T22:57:38.577Z,64.23
2022-09-23T23:00:07.820Z,63.80
2022-09-23T23:02:35.365Z,66.47
2022-09-23T23:05:02.911Z,64.77
2022-09-23T23:07:30.466Z,65.30
2022-09-23T23:09:58.165Z,65.93
2022-09-23T23:12:27.093Z,64.23
2022-09-23T23:14:54.825Z,65.33
2022-09-23T23:17:22.301Z,65.10
2022-09-23T23:19:50.572Z,66.50
2022-09-23T23:22:18.152Z,66.90
2022-09-23T23:24:45.677Z,65.40
2022-09-23T23:27:13.183Z,64.73
2022-09-23T23:29:42.069Z,66.40
2022-09-23T23:32:09.783Z,65.73
2022-09-23T23:34:37.346Z,65.43
2022-09-23T23:37:04.869Z,66.80
2022-09-23T23:39:32.408Z,66.47
2022-09-23T23:42:00.229Z,67.60
2022-09-23T23:44:31.067Z,65.50
2022-09-23T23:47:00.000Z,67.20
2022-09-23T23:49:28.663Z,66.50
2022-09-23T23:51:56.256Z,66.63
2022-09-23T23:54:23.779Z,66.10
2022-09-23T23:56:51.938Z,68.23
2022-09-23T23:59:20.869Z,66.17
